Kezdőlap
METAR-TAF:

METAR-TAF

Repülőterek :

Tulcsa, Románia

földrajzi szélesség: 45-11N, földrajzi hosszúság: 028-49E, magasság: 4 m

Jelenlegi meteorológiai megfigyelések

A jelentés 8 órával és 25 perccel ezelõtt készült, 05:00 UTC
Szélcsend
Hőmérséklet 20°C
Páratartalom 60%
Légköri nyomás 1016 hPa
Látótávolság 10 km, vagy több
felhőtlen 1500 m magasságban, és nincs gomolyfelhõ

METAR: LRTC 210500Z 00000KT CAVOK 20/12 Q1016 R16/D

Idő: 16:25 (13:25 UTC)

Előrejelzés

A jelentés 8 órával és 25 perccel ezelõtt készült, 05:00 UTC
Az előrejelzés 21-én 06 óra UTC és 21-én 15 óra UTC között érvényes
Különbözõ irányokból fújó szél 4 kt
Látótávolság 10 km, vagy több
felhőtlen 1500 m magasságban, és nincs gomolyfelhõ

TAF: LRTC 210500Z 2106/2115 VRB04KT CAVOK

Meteorológiai megfigyelések és előrejelzések több, mint 4000 repülőtéren (METAR és TAF jelentéseket).

A térképen piros és sárga pontok jelzik az elérhető meteorológiai állomásokat.

Mozgassa az egeret a pont fölött, hogy megjelenjen az állomás neve.

Azután kattintson az időjárási megfigyelések és előrejelzések megtekintéséhez.

A térkép megváltoztatása: kattintson a fekete keresztel jelölt zöld gombra ráközelítéshez, a vonallal jelölt zöld gombra távolításhoz, vagy a zöld nyilakra a szomszédos térképek eléréséhez.


METAR-TAF: